Time;durP1;ratioP1;P1;durP2;ratioP2;P2;SDS_P1;SDS_P2;PMS_P1;PMS_P2;Temp;Humidity;BMP_temperature;BMP_pressure;BME280_temperature;BME280_humidity;BME280_pressure;Samples;Min_cycle;Max_cycle;Signal;HPM_P1;HPM_P2
2022/10/29 00:01:27;;;;;;;14.50;5.47;;;15.90;99.90;;;;;;5042579;28;20652;-54
2022/10/29 00:03:54;;;;;;;12.23;4.87;;;15.80;99.90;;;;;;5040495;28;20219;-51
2022/10/29 00:06:23;;;;;;;18.77;5.30;;;15.80;99.90;;;;;;5041126;28;20187;-53
2022/10/29 00:08:50;;;;;;;10.80;4.90;;;15.80;99.90;;;;;;5031112;28;20199;-54
2022/10/29 00:11:19;;;;;;;11.63;4.20;;;15.70;99.90;;;;;;5030714;28;20291;-51
2022/10/29 00:13:47;;;;;;;18.07;5.37;;;15.70;99.90;;;;;;5032385;28;20246;-52
2022/10/29 00:16:17;;;;;;;18.03;4.90;;;15.70;99.90;;;;;;5033866;28;20191;-51
2022/10/29 00:18:44;;;;;;;12.30;4.57;;;15.70;99.90;;;;;;5042873;28;20223;-53
2022/10/29 00:21:13;;;;;;;17.17;5.30;;;15.70;99.90;;;;;;5039153;28;20206;-51
2022/10/29 00:23:42;;;;;;;11.63;5.10;;;15.60;99.90;;;;;;5042126;28;20279;-51
2022/10/29 00:26:09;;;;;;;15.83;5.67;;;15.60;99.90;;;;;;5022039;28;20873;-54
2022/10/29 00:28:37;;;;;;;13.27;5.07;;;15.50;99.90;;;;;;5037451;28;20415;-54
2022/10/29 00:31:05;;;;;;;11.77;4.00;;;15.50;99.90;;;;;;5039487;28;20203;-54
2022/10/29 00:33:32;;;;;;;12.93;4.47;;;15.50;99.90;;;;;;5042264;28;20227;-54
2022/10/29 00:36:02;;;;;;;11.73;4.53;;;15.40;99.90;;;;;;5039919;28;20206;-54
2022/10/29 00:38:29;;;;;;;12.17;4.50;;;15.40;99.90;;;;;;5042592;28;20742;-48
2022/10/29 00:40:57;;;;;;;15.17;4.57;;;15.40;99.90;;;;;;5024246;28;20226;-49
2022/10/29 00:43:26;;;;;;;15.13;5.10;;;15.30;99.90;;;;;;5035195;28;20316;-54
2022/10/29 00:45:56;;;;;;;11.47;4.00;;;15.30;99.90;;;;;;5041480;28;20191;-53
2022/10/29 00:48:26;;;;;;;12.67;4.50;;;15.30;99.90;;;;;;5041763;28;20188;-51
2022/10/29 00:50:54;;;;;;;20.67;4.40;;;15.30;99.90;;;;;;5040901;28;20202;-53
2022/10/29 00:53:25;;;;;;;12.73;4.20;;;15.20;99.90;;;;;;5039249;28;20208;-50
2022/10/29 00:55:52;;;;;;;12.43;4.73;;;15.20;99.90;;;;;;5023548;28;20207;-55
2022/10/29 00:58:21;;;;;;;11.17;4.67;;;15.20;99.90;;;;;;5034854;28;20216;-51
2022/10/29 01:00:48;;;;;;;17.20;4.80;;;15.20;99.90;;;;;;5042282;28;20222;-54
2022/10/29 01:03:15;;;;;;;13.57;4.10;;;15.20;99.90;;;;;;5037183;28;20227;-51
2022/10/29 01:05:43;;;;;;;15.33;4.87;;;15.10;99.90;;;;;;5044233;28;20199;-54
2022/10/29 01:08:11;;;;;;;11.43;4.00;;;15.10;99.90;;;;;;5042541;28;20194;-52
2022/10/29 01:10:52;;;;;;;17.20;4.30;;;15.00;99.90;;;;;;5030145;28;20215;-53
2022/10/29 01:13:34;;;;;;;12.10;4.93;;;15.10;99.90;;;;;;5043002;28;20230;-53
2022/10/29 01:16:10;;;;;;;8.27;4.37;;;15.00;99.90;;;;;;5035771;28;20294;-53
2022/10/29 01:18:45;;;;;;;16.80;4.53;;;15.00;99.90;;;;;;5046132;28;20223;-50
2022/10/29 01:21:37;;;;;;;13.33;4.30;;;14.90;99.90;;;;;;5042194;28;20206;-53
2022/10/29 01:24:46;;;;;;;12.93;4.10;;;14.90;99.90;;;;;;5041464;28;20684;-55
2022/10/29 01:27:38;;;;;;;11.80;4.27;;;14.90;99.90;;;;;;5026529;28;20215;-49
2022/10/29 01:30:13;;;;;;;12.63;4.20;;;14.80;99.90;;;;;;5034626;28;20202;-53
2022/10/29 01:32:51;;;;;;;11.90;4.73;;;14.80;99.90;;;;;;5046032;28;20297;-52
2022/10/29 01:35:24;;;;;;;11.13;5.00;;;14.80;99.90;;;;;;5042291;28;20218;-53
2022/10/29 01:38:03;;;;;;;15.33;4.77;;;14.80;99.90;;;;;;5044631;28;20203;-58
2022/10/29 01:40:35;;;;;;;12.10;5.23;;;14.80;99.90;;;;;;5044830;28;20202;-50
2022/10/29 01:43:08;;;;;;;13.23;4.73;;;14.70;99.90;;;;;;5023639;28;20238;-54
2022/10/29 01:45:39;;;;;;;13.23;4.23;;;14.70;99.90;;;;;;5039602;28;20208;-52
2022/10/29 01:48:11;;;;;;;12.70;4.27;;;14.70;99.90;;;;;;5041675;28;20726;-50
2022/10/29 01:50:43;;;;;;;12.20;4.73;;;14.70;99.90;;;;;;5045158;28;20210;-51
2022/10/29 01:53:10;;;;;;;13.37;4.10;;;14.70;99.90;;;;;;5040761;28;20890;-49
2022/10/29 01:55:37;;;;;;;17.37;5.00;;;14.60;99.90;;;;;;5045574;28;20210;-47
2022/10/29 01:58:06;;;;;;;13.47;5.13;;;14.60;99.90;;;;;;5025761;28;20207;-52
2022/10/29 02:00:44;;;;;;;12.67;4.40;;;14.60;99.90;;;;;;5042356;28;20282;-51
2022/10/29 02:03:27;;;;;;;12.20;4.13;;;14.60;99.90;;;;;;5034933;28;20313;-52
2022/10/29 02:06:04;;;;;;;15.73;4.70;;;14.60;99.90;;;;;;5043260;28;20579;-53
2022/10/29 02:08:39;;;;;;;11.97;3.97;;;14.60;99.90;;;;;;5045247;28;20214;-49
2022/10/29 02:11:14;;;;;;;21.37;5.07;;;14.60;99.90;;;;;;5040986;28;20196;-48
2022/10/29 02:13:46;;;;;;;11.23;4.13;;;14.60;99.90;;;;;;5027852;28;20226;-52
2022/10/29 02:16:14;;;;;;;11.57;5.20;;;14.60;99.90;;;;;;5035139;28;20290;-53
2022/10/29 02:18:45;;;;;;;13.73;4.30;;;14.60;99.90;;;;;;5044897;28;20222;-53
2022/10/29 02:21:15;;;;;;;17.20;5.03;;;14.60;99.90;;;;;;5040784;28;20309;-50
2022/10/29 02:23:43;;;;;;;13.17;4.77;;;14.60;99.90;;;;;;5043828;28;20226;-53
2022/10/29 02:26:10;;;;;;;18.40;5.10;;;14.60;99.90;;;;;;5040879;28;20194;-52
2022/10/29 02:28:37;;;;;;;16.03;4.83;;;14.60;99.90;;;;;;5039165;28;20684;-48
2022/10/29 02:31:04;;;;;;;12.90;5.33;;;14.60;99.90;;;;;;5021731;28;20203;-54
2022/10/29 02:33:31;;;;;;;13.67;5.70;;;14.60;99.90;;;;;;5038243;28;20317;-50
2022/10/29 02:35:59;;;;;;;16.00;4.53;;;14.50;99.90;;;;;;5041742;28;20199;-54
2022/10/29 02:38:26;;;;;;;16.10;4.83;;;14.50;99.90;;;;;;5044059;28;20211;-50
2022/10/29 02:40:53;;;;;;;15.27;4.90;;;14.50;99.90;;;;;;5042995;28;20219;-55
2022/10/29 02:43:20;;;;;;;15.73;4.93;;;14.50;99.90;;;;;;5041491;28;20222;-52
2022/10/29 02:45:46;;;;;;;13.27;4.93;;;14.50;99.90;;;;;;5027471;28;20208;-55
2022/10/29 02:48:13;;;;;;;19.63;5.53;;;14.50;99.90;;;;;;5029956;28;20200;-51
2022/10/29 02:50:40;;;;;;;17.07;5.13;;;14.50;99.90;;;;;;5043931;28;20204;-56
2022/10/29 02:53:08;;;;;;;14.63;4.73;;;14.50;99.90;;;;;;5039517;28;20238;-55
2022/10/29 02:55:35;;;;;;;14.00;3.90;;;14.50;99.90;;;;;;5035060;28;20199;-55
2022/10/29 02:58:02;;;;;;;16.87;4.40;;;14.50;99.90;;;;;;5044218;28;20201;-53
2022/10/29 03:00:28;;;;;;;15.20;5.07;;;14.50;99.90;;;;;;5024117;28;20203;-53
2022/10/29 03:02:55;;;;;;;16.33;4.67;;;14.50;99.90;;;;;;5038208;28;20742;-51
2022/10/29 03:05:22;;;;;;;17.00;4.90;;;14.50;99.90;;;;;;5040350;28;20198;-54
2022/10/29 03:07:49;;;;;;;17.87;5.70;;;14.40;99.90;;;;;;5043213;28;20214;-51
2022/10/29 03:10:17;;;;;;;15.83;5.57;;;14.40;99.90;;;;;;5037409;28;20655;-55
2022/10/29 03:12:43;;;;;;;14.20;4.87;;;14.50;99.90;;;;;;5041588;28;21020;-56
2022/10/29 03:15:10;;;;;;;12.57;4.67;;;14.40;99.90;;;;;;5026584;28;20213;-56
2022/10/29 03:17:37;;;;;;;18.23;5.33;;;14.50;99.90;;;;;;5040837;28;20187;-53
2022/10/29 03:20:05;;;;;;;12.97;4.93;;;14.50;99.90;;;;;;5035402;28;20219;-54
2022/10/29 03:22:32;;;;;;;11.53;5.50;;;14.40;99.90;;;;;;5039784;28;20986;-54
2022/10/29 03:24:59;;;;;;;16.60;4.93;;;14.40;99.90;;;;;;5037539;28;20278;-52
2022/10/29 03:27:27;;;;;;;16.50;5.37;;;14.40;99.90;;;;;;5040147;28;20267;-55
2022/10/29 03:29:54;;;;;;;10.63;4.43;;;14.40;99.90;;;;;;5043521;28;20196;-54
2022/10/29 03:32:21;;;;;;;11.13;4.63;;;14.40;99.90;;;;;;5024674;28;20583;-55
2022/10/29 03:34:47;;;;;;;13.90;4.60;;;14.40;99.90;;;;;;5035408;28;20199;-54
2022/10/29 03:37:14;;;;;;;17.37;5.50;;;14.30;99.90;;;;;;5038344;28;20195;-55
2022/10/29 03:39:41;;;;;;;13.93;5.73;;;14.30;99.90;;;;;;5035715;28;20223;-54
2022/10/29 03:42:08;;;;;;;15.87;5.33;;;14.30;99.90;;;;;;5043128;28;20750;-53
2022/10/29 03:44:37;;;;;;;10.03;4.47;;;14.30;99.90;;;;;;5038758;28;20195;-55
2022/10/29 03:47:04;;;;;;;16.47;4.50;;;14.30;99.90;;;;;;5026747;28;20208;-54
2022/10/29 03:49:31;;;;;;;16.00;5.90;;;14.20;99.90;;;;;;5033653;28;20324;-51
2022/10/29 03:51:58;;;;;;;10.40;4.53;;;14.10;99.90;;;;;;5042847;28;20220;-54
2022/10/29 03:54:25;;;;;;;11.47;4.60;;;14.10;99.90;;;;;;5038944;28;20313;-54
2022/10/29 03:56:52;;;;;;;14.03;5.20;;;14.10;99.90;;;;;;5037769;28;20219;-54
2022/10/29 03:59:19;;;;;;;13.27;5.10;;;14.10;99.90;;;;;;5041209;28;20215;-55
2022/10/29 04:01:47;;;;;;;16.40;5.60;;;14.00;99.90;;;;;;5023471;28;20222;-53
2022/10/29 04:04:14;;;;;;;15.47;5.80;;;14.00;99.90;;;;;;5040858;28;20203;-55
2022/10/29 04:06:40;;;;;;;15.37;5.67;;;14.00;99.90;;;;;;5034357;28;20203;-55
2022/10/29 04:09:07;;;;;;;13.33;5.30;;;14.00;99.90;;;;;;5039402;28;20543;-53
2022/10/29 04:11:34;;;;;;;13.00;5.77;;;14.00;99.90;;;;;;5033911;28;20386;-48
2022/10/29 04:14:01;;;;;;;17.93;5.73;;;14.10;99.90;;;;;;5042148;28;20199;-54
2022/10/29 04:16:28;;;;;;;17.00;5.90;;;14.10;99.90;;;;;;5024124;28;20204;-56
2022/10/29 04:18:57;;;;;;;21.07;6.70;;;14.10;99.90;;;;;;5040639;28;20210;-49
2022/10/29 04:21:24;;;;;;;17.77;6.47;;;14.00;99.90;;;;;;5035839;28;20664;-53
2022/10/29 04:23:51;;;;;;;18.73;7.77;;;14.10;99.90;;;;;;5040656;28;20231;-50
2022/10/29 04:26:18;;;;;;;16.73;6.63;;;14.10;99.90;;;;;;5039560;28;20219;-56
2022/10/29 04:28:48;;;;;;;19.87;7.43;;;14.00;99.90;;;;;;5038630;28;20214;-51
2022/10/29 04:31:15;;;;;;;20.73;6.83;;;13.90;99.90;;;;;;5041775;28;20721;-55
2022/10/29 04:33:42;;;;;;;15.03;6.87;;;13.90;99.90;;;;;;5023140;28;20307;-49
2022/10/29 04:36:12;;;;;;;27.70;8.73;;;13.90;99.90;;;;;;5038148;28;20208;-50
2022/10/29 04:38:39;;;;;;;26.23;8.10;;;13.90;99.90;;;;;;5037499;28;20677;-53
2022/10/29 04:41:06;;;;;;;19.27;8.97;;;13.90;99.90;;;;;;5042296;28;20199;-51
2022/10/29 04:43:33;;;;;;;20.20;7.80;;;13.90;99.90;;;;;;5040669;28;20413;-52
2022/10/29 04:46:00;;;;;;;22.77;8.47;;;13.80;99.90;;;;;;5042845;28;20197;-52
2022/10/29 04:48:28;;;;;;;19.73;9.20;;;13.80;99.90;;;;;;5030454;28;20261;-51
2022/10/29 04:50:55;;;;;;;24.07;9.37;;;13.80;99.90;;;;;;5042688;28;20977;-55
2022/10/29 04:53:23;;;;;;;18.43;7.97;;;13.80;99.90;;;;;;5039745;28;20704;-50
2022/10/29 04:55:50;;;;;;;22.00;10.23;;;13.80;99.90;;;;;;5044403;28;20207;-53
2022/10/29 04:58:18;;;;;;;21.07;8.63;;;13.80;99.90;;;;;;5040033;28;20230;-52
2022/10/29 05:00:45;;;;;;;20.07;8.30;;;13.70;99.90;;;;;;5045435;28;20227;-54
2022/10/29 05:03:12;;;;;;;19.37;9.23;;;13.70;99.90;;;;;;5043444;28;20212;-55
2022/10/29 05:05:40;;;;;;;22.90;7.77;;;13.70;99.90;;;;;;5029512;28;20695;-53
2022/10/29 05:08:07;;;;;;;18.47;7.80;;;13.60;99.90;;;;;;5037434;28;20207;-54
2022/10/29 05:10:37;;;;;;;17.67;7.53;;;13.70;99.90;;;;;;5046531;28;20192;-51
2022/10/29 05:13:06;;;;;;;17.40;7.37;;;13.60;99.90;;;;;;5036673;28;20334;-53
2022/10/29 05:15:34;;;;;;;15.77;6.63;;;13.60;99.90;;;;;;5045701;28;20211;-53
2022/10/29 05:18:00;;;;;;;18.03;8.47;;;13.50;99.90;;;;;;5042406;28;20199;-51
2022/10/29 05:20:28;;;;;;;14.57;6.43;;;13.50;99.90;;;;;;5029413;28;20212;-51
2022/10/29 05:22:59;;;;;;;21.43;7.73;;;13.50;99.90;;;;;;5023728;28;20257;-54
2022/10/29 05:25:26;;;;;;;24.73;8.37;;;13.50;99.90;;;;;;5025289;28;20199;-53
2022/10/29 05:28:02;;;;;;;17.97;6.17;;;13.50;99.90;;;;;;5027925;28;20208;-52
2022/10/29 05:30:28;;;;;;;12.37;6.93;;;13.50;99.90;;;;;;5025339;28;20218;-52
2022/10/29 05:32:55;;;;;;;17.13;7.90;;;13.40;99.90;;;;;;5040929;28;20829;-53
2022/10/29 05:35:22;;;;;;;19.50;9.30;;;13.40;99.90;;;;;;5024235;28;20208;-56
2022/10/29 05:37:52;;;;;;;18.37;8.00;;;13.40;99.90;;;;;;5035506;28;20279;-53
2022/10/29 05:40:19;;;;;;;18.87;9.13;;;13.40;99.90;;;;;;5031619;28;20225;-55
2022/10/29 05:42:46;;;;;;;21.30;8.50;;;13.50;99.90;;;;;;5027622;28;20227;-52
2022/10/29 05:45:14;;;;;;;23.17;8.67;;;13.50;99.90;;;;;;5036181;28;20206;-51
2022/10/29 05:47:41;;;;;;;19.47;8.60;;;13.60;99.90;;;;;;5034212;28;20226;-52
2022/10/29 05:50:09;;;;;;;20.73;8.60;;;13.60;99.90;;;;;;5042784;28;20683;-53
2022/10/29 05:52:36;;;;;;;21.27;8.50;;;13.60;99.90;;;;;;5021890;28;20298;-55
2022/10/29 05:55:03;;;;;;;25.80;9.87;;;13.60;99.90;;;;;;5035024;28;20211;-54
2022/10/29 05:57:29;;;;;;;22.93;8.67;;;13.60;99.90;;;;;;5034181;28;20206;-56
2022/10/29 05:59:56;;;;;;;23.70;9.37;;;13.60;99.90;;;;;;5035655;28;22694;-53
2022/10/29 06:02:24;;;;;;;24.13;10.00;;;13.60;99.90;;;;;;5037556;28;20854;-54
2022/10/29 06:04:51;;;;;;;17.90;8.77;;;13.60;99.90;;;;;;5040787;28;20199;-52
2022/10/29 06:07:17;;;;;;;21.10;9.07;;;13.60;99.90;;;;;;5028121;28;20203;-55
2022/10/29 06:09:44;;;;;;;26.40;10.13;;;13.60;99.90;;;;;;5035209;28;20921;-54
2022/10/29 06:12:11;;;;;;;25.60;10.10;;;13.60;99.90;;;;;;5039181;28;20243;-48
2022/10/29 06:14:37;;;;;;;25.23;9.37;;;13.60;99.90;;;;;;5034194;28;20222;-52
2022/10/29 06:17:04;;;;;;;20.93;9.70;;;13.60;99.90;;;;;;5027981;28;20203;-56
2022/10/29 06:19:32;;;;;;;18.63;9.83;;;13.70;99.90;;;;;;5042985;28;20215;-50
2022/10/29 06:21:58;;;;;;;22.93;10.73;;;13.70;99.90;;;;;;5020080;28;20227;-51
2022/10/29 06:24:25;;;;;;;21.70;10.17;;;13.60;99.90;;;;;;5034261;28;20203;-51
2022/10/29 06:26:53;;;;;;;23.37;10.50;;;13.60;99.90;;;;;;5035349;28;20208;-54
2022/10/29 06:29:19;;;;;;;23.03;9.63;;;13.60;99.90;;;;;;5032115;28;20196;-50
2022/10/29 06:31:46;;;;;;;28.93;11.40;;;13.60;99.90;;;;;;5034260;28;20234;-55
2022/10/29 06:34:13;;;;;;;20.80;11.07;;;13.60;99.90;;;;;;5039269;28;20195;-54
2022/10/29 06:36:41;;;;;;;19.70;10.83;;;13.60;99.90;;;;;;5035755;28;20250;-55
2022/10/29 06:39:08;;;;;;;24.93;9.90;;;13.60;99.90;;;;;;5029855;28;20206;-51
2022/10/29 06:41:34;;;;;;;21.73;10.03;;;13.60;99.90;;;;;;5034395;28;20246;-50
2022/10/29 06:44:01;;;;;;;21.50;9.67;;;13.60;99.90;;;;;;5029629;28;20203;-52
2022/10/29 06:46:28;;;;;;;20.63;10.37;;;13.60;99.90;;;;;;5034292;28;20676;-48
2022/10/29 06:48:56;;;;;;;25.37;11.17;;;13.60;99.90;;;;;;5035473;28;20214;-53
2022/10/29 06:51:23;;;;;;;21.33;11.63;;;13.60;99.90;;;;;;5044029;28;20195;-51
2022/10/29 06:53:52;;;;;;;26.17;11.20;;;13.60;99.90;;;;;;5023906;28;20231;-55
2022/10/29 06:56:19;;;;;;;24.93;10.90;;;13.60;99.90;;;;;;5042181;28;20227;-50
2022/10/29 06:58:46;;;;;;;23.67;12.00;;;13.60;99.90;;;;;;5037219;28;20214;-55
2022/10/29 07:01:12;;;;;;;17.97;10.53;;;13.60;99.90;;;;;;5040317;28;20226;-52
2022/10/29 07:03:39;;;;;;;19.73;10.13;;;13.60;99.90;;;;;;5037300;28;20231;-50
2022/10/29 07:06:06;;;;;;;21.87;10.17;;;13.60;99.90;;;;;;5040067;28;20195;-52
2022/10/29 07:08:33;;;;;;;18.00;9.87;;;13.60;99.90;;;;;;5044162;28;20206;-51
2022/10/29 07:11:03;;;;;;;19.53;10.00;;;13.60;99.90;;;;;;5024041;28;20826;-53
2022/10/29 07:13:30;;;;;;;19.03;10.57;;;13.60;99.90;;;;;;5031928;28;20223;-51
2022/10/29 07:15:56;;;;;;;17.43;9.57;;;13.70;99.90;;;;;;5035809;28;20199;-53
2022/10/29 07:18:23;;;;;;;21.57;10.90;;;13.70;99.90;;;;;;5038660;28;20644;-49
2022/10/29 07:20:50;;;;;;;21.83;11.97;;;13.70;99.90;;;;;;5032897;28;20223;-54
2022/10/29 07:23:16;;;;;;;24.70;12.37;;;13.70;99.90;;;;;;5041080;28;20223;-52
2022/10/29 07:25:43;;;;;;;24.97;12.60;;;13.70;99.90;;;;;;5017677;28;20213;-56
2022/10/29 07:28:15;;;;;;;20.40;12.67;;;13.70;99.90;;;;;;5030109;28;20676;-52
2022/10/29 07:30:42;;;;;;;27.50;15.63;;;13.70;99.90;;;;;;5040899;28;20199;-54
2022/10/29 07:33:08;;;;;;;32.07;17.67;;;13.70;99.90;;;;;;5039743;28;20215;-50
2022/10/29 07:35:35;;;;;;;32.97;18.03;;;13.70;99.90;;;;;;5035233;28;20199;-54
2022/10/29 07:38:04;;;;;;;28.63;16.57;;;13.80;99.90;;;;;;5039514;28;20188;-50
2022/10/29 07:40:31;;;;;;;33.33;19.57;;;13.80;99.90;;;;;;5039532;28;20269;-54
2022/10/29 07:42:57;;;;;;;27.13;17.83;;;13.80;99.90;;;;;;5018534;28;20235;-53
2022/10/29 07:45:26;;;;;;;30.00;18.87;;;13.80;99.90;;;;;;5036469;28;20573;-54
2022/10/29 07:47:59;;;;;;;25.67;17.97;;;13.90;99.90;;;;;;5038470;28;20209;-52
2022/10/29 07:50:26;;;;;;;27.67;18.20;;;13.90;99.90;;;;;;5033979;28;20214;-56
2022/10/29 07:52:53;;;;;;;34.07;18.47;;;13.90;99.90;;;;;;5037582;28;20211;-54
2022/10/29 07:55:19;;;;;;;26.57;19.17;;;14.00;99.90;;;;;;5040640;28;20208;-51
2022/10/29 07:57:47;;;;;;;28.83;18.60;;;14.00;99.90;;;;;;5008697;28;20698;-52
2022/10/29 08:00:14;;;;;;;23.63;16.53;;;14.00;99.90;;;;;;5035077;28;20215;-50
2022/10/29 08:02:44;;;;;;;26.23;17.13;;;14.00;99.90;;;;;;5038715;28;20223;-54
2022/10/29 08:05:11;;;;;;;28.23;16.63;;;14.10;99.90;;;;;;5040251;28;20206;-51
2022/10/29 08:07:38;;;;;;;29.57;16.00;;;14.10;99.90;;;;;;5036552;28;20570;-54
2022/10/29 08:10:05;;;;;;;24.77;15.43;;;14.10;99.90;;;;;;5036944;28;20269;-51
2022/10/29 08:12:32;;;;;;;21.70;13.73;;;14.20;99.90;;;;;;5024041;28;20233;-54
2022/10/29 08:14:58;;;;;;;21.03;13.70;;;14.20;99.90;;;;;;5035643;28;20219;-53
2022/10/29 08:17:25;;;;;;;22.83;12.33;;;14.20;99.90;;;;;;5033544;28;20206;-52
2022/10/29 08:19:54;;;;;;;19.60;11.70;;;14.20;99.90;;;;;;5034126;28;20215;-55
2022/10/29 08:22:20;;;;;;;20.03;10.80;;;14.30;99.90;;;;;;5036661;28;20298;-50
2022/10/29 08:24:47;;;;;;;20.00;11.50;;;14.30;99.90;;;;;;5038732;28;20218;-52
2022/10/29 08:27:14;;;;;;;18.90;10.77;;;14.30;99.90;;;;;;5023468;28;20207;-53
2022/10/29 08:29:40;;;;;;;20.47;11.60;;;14.30;99.90;;;;;;5036343;28;20207;-54
2022/10/29 08:32:07;;;;;;;21.20;10.77;;;14.30;99.90;;;;;;5038351;28;20439;-50
2022/10/29 08:34:34;;;;;;;20.17;10.83;;;14.30;99.90;;;;;;5036469;28;20226;-55
2022/10/29 08:37:02;;;;;;;22.90;11.57;;;14.30;99.90;;;;;;5037482;28;20226;-49
2022/10/29 08:39:28;;;;;;;20.73;10.97;;;14.40;99.90;;;;;;5041137;28;20672;-49
2022/10/29 08:42:05;;;;;;;20.77;10.97;;;14.40;99.90;;;;;;5038599;28;20242;-49
2022/10/29 08:44:53;;;;;;;15.30;10.67;;;14.40;99.90;;;;;;5024813;28;20560;-51
2022/10/29 08:47:22;;;;;;;15.90;11.10;;;14.50;99.90;;;;;;5034318;28;20200;-53
2022/10/29 08:50:00;;;;;;;17.90;11.10;;;14.50;99.90;;;;;;5040033;28;20686;-53
2022/10/29 08:52:30;;;;;;;21.20;11.13;;;14.60;99.90;;;;;;5038900;28;20220;-53
2022/10/29 08:55:06;;;;;;;23.03;11.37;;;14.70;99.90;;;;;;5026384;28;20209;-52
2022/10/29 08:57:37;;;;;;;17.47;11.97;;;14.80;99.90;;;;;;5039338;28;20206;-53
2022/10/29 09:00:06;;;;;;;22.47;12.67;;;14.80;99.90;;;;;;5026918;28;20286;-51
2022/10/29 09:02:33;;;;;;;23.37;12.77;;;14.80;99.90;;;;;;5040635;28;20231;-53
2022/10/29 09:05:01;;;;;;;18.90;11.37;;;14.80;99.90;;;;;;5041974;28;20222;-49
2022/10/29 09:07:53;;;;;;;23.60;11.53;;;15.00;99.90;;;;;;5045838;28;20233;-51
2022/10/29 09:10:27;;;;;;;20.67;11.20;;;15.10;99.90;;;;;;5041155;28;20195;-51
2022/10/29 09:13:20;;;;;;;16.47;11.13;;;15.20;99.90;;;;;;5037453;28;20214;-49
2022/10/29 09:16:14;;;;;;;17.93;10.57;;;15.30;99.90;;;;;;5019583;28;20223;-55
2022/10/29 09:18:56;;;;;;;22.40;10.97;;;15.40;99.90;;;;;;5031538;28;20290;-54
2022/10/29 09:21:32;;;;;;;20.73;10.90;;;15.60;99.90;;;;;;5037989;28;20223;-49
2022/10/29 09:24:07;;;;;;;19.60;10.07;;;15.70;99.90;;;;;;5036447;28;20290;-48
2022/10/29 09:26:42;;;;;;;18.70;10.63;;;15.90;99.90;;;;;;5037292;28;20207;-54
2022/10/29 09:29:35;;;;;;;16.97;10.60;;;16.00;99.90;;;;;;5037432;28;20191;-53
2022/10/29 09:32:05;;;;;;;20.77;11.60;;;16.10;99.90;;;;;;5023869;28;20219;-53
2022/10/29 09:34:39;;;;;;;22.43;11.20;;;16.20;99.90;;;;;;5038110;28;20206;-56
2022/10/29 09:37:14;;;;;;;23.07;12.27;;;16.20;99.90;;;;;;5038875;28;20278;-51
2022/10/29 09:39:45;;;;;;;19.00;10.73;;;16.30;99.90;;;;;;5040951;28;20249;-55
2022/10/29 09:42:15;;;;;;;23.23;11.80;;;16.40;99.90;;;;;;5036715;28;20227;-53
2022/10/29 09:44:49;;;;;;;25.87;13.33;;;16.40;99.90;;;;;;5036230;28;20218;-55
2022/10/29 09:47:26;;;;;;;23.07;12.43;;;16.30;99.90;;;;;;5029879;28;20203;-49
2022/10/29 09:50:04;;;;;;;23.33;12.63;;;16.30;99.90;;;;;;5033467;28;20285;-54
2022/10/29 09:52:34;;;;;;;21.70;11.30;;;16.30;99.90;;;;;;5032609;28;20214;-52
2022/10/29 09:55:04;;;;;;;24.77;12.27;;;16.20;99.90;;;;;;5032056;28;20210;-53
2022/10/29 09:57:34;;;;;;;23.07;12.30;;;16.20;99.90;;;;;;5033661;28;20296;-50
2022/10/29 10:00:02;;;;;;;25.20;12.43;;;16.20;99.90;;;;;;5042061;28;20204;-53
2022/10/29 10:02:43;;;;;;;25.30;13.75;;;16.30;99.90;;;;;;5025278;28;20439;-50
2022/10/29 10:05:16;;;;;;;30.83;14.37;;;16.40;99.90;;;;;;5028682;28;20668;-55
2022/10/29 10:08:05;;;;;;;19.17;11.57;;;16.40;99.90;;;;;;5037646;28;20190;-51
2022/10/29 10:10:34;;;;;;;24.33;13.68;;;16.30;99.90;;;;;;5028319;28;20523;-54
2022/10/29 10:13:02;;;;;;;27.03;15.23;;;16.50;99.90;;;;;;5032228;28;20230;-51
2022/10/29 10:15:32;;;;;;;24.03;14.33;;;16.40;99.90;;;;;;5033151;28;20211;-52
2022/10/29 10:18:01;;;;;;;29.40;16.63;;;16.30;99.90;;;;;;5024915;28;20210;-52
2022/10/29 10:20:38;;;;;;;26.50;14.67;;;16.30;99.90;;;;;;5038165;28;20195;-55
2022/10/29 10:23:23;;;;;;;27.43;15.50;;;16.20;99.90;;;;;;5031806;28;20365;-55
2022/10/29 10:25:53;;;;;;;28.27;14.60;;;16.20;99.90;;;;;;5037083;28;20672;-53
2022/10/29 10:28:23;;;;;;;28.97;17.47;;;16.20;99.90;;;;;;5034117;28;20212;-53
2022/10/29 10:31:07;;;;;;;26.47;16.27;;;16.20;99.90;;;;;;5034949;28;20217;-53
2022/10/29 10:33:37;;;;;;;29.60;15.93;;;16.20;99.90;;;;;;5023276;28;20219;-53
2022/10/29 10:36:06;;;;;;;33.50;17.10;;;16.20;99.90;;;;;;5034592;28;20610;-53
2022/10/29 10:38:42;;;;;;;25.27;16.03;;;16.20;99.90;;;;;;5042802;28;20203;-50
2022/10/29 10:41:12;;;;;;;26.73;16.73;;;16.10;99.90;;;;;;5033827;28;22858;-52
2022/10/29 10:43:43;;;;;;;34.37;16.47;;;16.10;99.90;;;;;;5041970;28;20272;-49
2022/10/29 10:46:16;;;;;;;24.30;15.17;;;16.20;99.90;;;;;;5027613;28;20799;-50
2022/10/29 10:48:42;;;;;;;23.97;15.40;;;16.30;99.90;;;;;;5025870;28;20630;-49
2022/10/29 10:51:22;;;;;;;26.47;14.80;;;16.30;99.90;;;;;;5034276;28;20184;-48
2022/10/29 10:53:50;;;;;;;31.67;16.03;;;16.30;99.90;;;;;;5035445;28;20215;-52
2022/10/29 10:56:20;;;;;;;31.93;15.83;;;16.40;99.90;;;;;;5031639;28;20896;-48
2022/10/29 10:58:55;;;;;;;29.87;15.50;;;16.40;99.90;;;;;;5043609;28;20196;-50
2022/10/29 11:01:28;;;;;;;30.63;16.20;;;16.40;99.90;;;;;;5028787;28;20753;-48
2022/10/29 11:04:02;;;;;;;30.57;17.23;;;16.40;99.90;;;;;;5031613;28;20231;-55
2022/10/29 11:06:32;;;;;;;31.70;18.30;;;16.30;99.90;;;;;;5042623;28;20200;-53
2022/10/29 11:09:06;;;;;;;27.17;16.10;;;16.30;99.90;;;;;;5034529;28;20209;-51
2022/10/29 11:11:38;;;;;;;29.80;16.60;;;16.30;99.90;;;;;;5043820;28;20191;-50
2022/10/29 11:14:12;;;;;;;31.67;16.27;;;16.40;99.90;;;;;;5033107;28;20787;-48
2022/10/29 11:16:42;;;;;;;30.03;15.80;;;16.40;99.90;;;;;;5035115;28;20214;-54
2022/10/29 11:19:18;;;;;;;27.00;14.03;;;16.50;99.90;;;;;;5031426;28;20227;-49
2022/10/29 11:21:55;;;;;;;27.30;14.70;;;16.50;99.90;;;;;;5029481;28;20225;-55
2022/10/29 11:24:27;;;;;;;21.50;13.03;;;16.50;99.90;;;;;;5033654;28;20282;-51
2022/10/29 11:27:01;;;;;;;23.23;13.80;;;16.60;99.90;;;;;;5041534;28;20203;-53
2022/10/29 11:29:35;;;;;;;22.20;12.53;;;16.70;99.90;;;;;;5035123;28;20282;-49
2022/10/29 11:32:12;;;;;;;25.37;12.60;;;16.70;99.90;;;;;;5027573;28;20225;-54
2022/10/29 11:34:46;;;;;;;23.30;12.20;;;16.70;99.90;;;;;;5042567;28;20201;-49
2022/10/29 11:37:21;;;;;;;20.50;11.37;;;16.70;99.90;;;;;;5028257;28;20206;-50
2022/10/29 11:39:51;;;;;;;16.73;11.07;;;16.70;99.90;;;;;;5037007;28;20210;-53
2022/10/29 11:42:20;;;;;;;22.73;11.63;;;16.70;99.90;;;;;;5041242;28;20214;-50
2022/10/29 11:44:47;;;;;;;20.20;11.50;;;16.80;99.90;;;;;;5036534;28;20217;-52
2022/10/29 11:47:30;;;;;;;21.23;11.67;;;16.80;99.90;;;;;;5027832;28;20208;-49
2022/10/29 11:50:18;;;;;;;20.00;11.60;;;16.80;99.90;;;;;;5027183;28;20199;-56
2022/10/29 11:52:53;;;;;;;16.07;10.80;;;16.80;99.90;;;;;;5037181;28;20223;-51
2022/10/29 11:55:30;;;;;;;20.70;10.23;;;16.70;99.90;;;;;;5034490;28;20195;-50
2022/10/29 11:58:03;;;;;;;26.23;10.20;;;16.70;99.90;;;;;;5040428;28;20556;-53
2022/10/29 12:00:42;;;;;;;16.50;10.40;;;16.80;99.90;;;;;;5036159;28;20698;-50
2022/10/29 12:03:41;;;;;;;16.97;9.50;;;16.80;99.90;;;;;;5025923;28;20219;-53
2022/10/29 12:06:15;;;;;;;21.40;10.10;;;16.90;99.90;;;;;;5018474;28;20711;-48
2022/10/29 12:09:12;;;;;;;15.33;8.90;;;16.80;99.90;;;;;;5023118;28;20262;-53
2022/10/29 12:11:45;;;;;;;18.03;10.17;;;16.90;99.90;;;;;;5027906;28;20216;-55
2022/10/29 12:14:26;;;;;;;15.60;9.07;;;16.90;99.90;;;;;;5038859;28;20196;-55
2022/10/29 12:16:59;;;;;;;16.83;10.03;;;16.90;99.90;;;;;;5027866;28;20218;-51
2022/10/29 12:19:36;;;;;;;23.43;9.23;;;16.90;99.90;;;;;;5032969;28;20183;-46
2022/10/29 12:22:15;;;;;;;19.57;8.70;;;16.80;99.90;;;;;;5018481;28;20238;-54
2022/10/29 12:24:57;;;;;;;18.73;9.43;;;16.80;99.90;;;;;;5033772;28;20202;-51
2022/10/29 12:27:31;;;;;;;17.37;8.57;;;16.90;99.90;;;;;;5030995;28;20916;-47
2022/10/29 12:30:03;;;;;;;16.00;8.63;;;17.00;99.90;;;;;;5037618;28;20202;-50
2022/10/29 12:32:37;;;;;;;21.87;8.97;;;17.10;99.90;;;;;;5032137;28;20238;-52
2022/10/29 12:35:15;;;;;;;14.87;8.73;;;17.20;99.90;;;;;;5029446;28;20308;-53
2022/10/29 12:37:48;;;;;;;16.80;8.30;;;17.30;99.90;;;;;;5022148;28;20207;-47
2022/10/29 12:40:20;;;;;;;19.73;8.57;;;17.30;99.90;;;;;;5030910;28;20207;-50
2022/10/29 12:42:49;;;;;;;17.73;9.03;;;17.40;99.90;;;;;;5032333;28;20293;-51
2022/10/29 12:45:28;;;;;;;16.37;8.50;;;17.40;99.90;;;;;;5035091;28;20294;-49
2022/10/29 12:48:03;;;;;;;15.33;8.67;;;17.40;99.90;;;;;;5025311;28;20211;-50
2022/10/29 12:50:41;;;;;;;15.73;8.33;;;17.40;99.90;;;;;;5034911;28;20221;-52